sensor_id;sensor_type;location;lat;lon;timestamp;P1;durP1;ratioP1;P2;durP2;ratioP2
49840;SDS011;35738;49.890;5.930;2024-03-08T00:01:41;32.93;;;16.80;;
49840;SDS011;35738;49.890;5.930;2024-03-08T00:04:11;31.90;;;16.73;;
49840;SDS011;35738;49.890;5.930;2024-03-08T00:06:37;33.73;;;17.20;;
49840;SDS011;35738;49.890;5.930;2024-03-08T00:09:05;32.93;;;17.47;;
49840;SDS011;35738;49.890;5.930;2024-03-08T00:11:34;35.77;;;18.10;;
49840;SDS011;35738;49.890;5.930;2024-03-08T00:14:01;33.83;;;16.83;;
49840;SDS011;35738;49.890;5.930;2024-03-08T00:16:28;33.50;;;17.03;;
49840;SDS011;35738;49.890;5.930;2024-03-08T00:18:55;30.03;;;16.23;;
49840;SDS011;35738;49.890;5.930;2024-03-08T00:21:21;32.70;;;17.10;;
49840;SDS011;35738;49.890;5.930;2024-03-08T00:23:48;33.77;;;17.53;;
49840;SDS011;35738;49.890;5.930;2024-03-08T00:26:14;36.50;;;17.63;;
49840;SDS011;35738;49.890;5.930;2024-03-08T00:28:41;35.67;;;17.47;;
49840;SDS011;35738;49.890;5.930;2024-03-08T00:31:08;32.33;;;17.10;;
49840;SDS011;35738;49.890;5.930;2024-03-08T00:33:34;29.80;;;16.20;;
49840;SDS011;35738;49.890;5.930;2024-03-08T00:36:01;33.10;;;17.17;;
49840;SDS011;35738;49.890;5.930;2024-03-08T00:38:27;32.17;;;16.83;;
49840;SDS011;35738;49.890;5.930;2024-03-08T00:40:54;30.50;;;16.13;;
49840;SDS011;35738;49.890;5.930;2024-03-08T00:43:23;33.03;;;16.77;;
49840;SDS011;35738;49.890;5.930;2024-03-08T00:45:49;30.83;;;16.60;;
49840;SDS011;35738;49.890;5.930;2024-03-08T00:48:16;34.40;;;17.87;;
49840;SDS011;35738;49.890;5.930;2024-03-08T00:50:43;30.43;;;15.70;;
49840;SDS011;35738;49.890;5.930;2024-03-08T00:53:12;33.07;;;17.33;;
49840;SDS011;35738;49.890;5.930;2024-03-08T00:55:39;34.00;;;16.97;;
49840;SDS011;35738;49.890;5.930;2024-03-08T00:58:05;31.47;;;16.23;;
49840;SDS011;35738;49.890;5.930;2024-03-08T01:00:32;32.77;;;17.17;;
49840;SDS011;35738;49.890;5.930;2024-03-08T01:02:59;32.67;;;17.27;;
49840;SDS011;35738;49.890;5.930;2024-03-08T01:05:26;34.97;;;17.57;;
49840;SDS011;35738;49.890;5.930;2024-03-08T01:07:53;31.23;;;16.67;;
49840;SDS011;35738;49.890;5.930;2024-03-08T01:10:19;35.97;;;16.83;;
49840;SDS011;35738;49.890;5.930;2024-03-08T01:12:46;33.53;;;16.80;;
49840;SDS011;35738;49.890;5.930;2024-03-08T01:15:12;29.57;;;15.57;;
49840;SDS011;35738;49.890;5.930;2024-03-08T01:17:39;32.10;;;17.07;;
49840;SDS011;35738;49.890;5.930;2024-03-08T01:20:06;33.53;;;16.60;;
49840;SDS011;35738;49.890;5.930;2024-03-08T01:22:34;33.03;;;16.17;;
49840;SDS011;35738;49.890;5.930;2024-03-08T01:25:00;28.50;;;15.93;;
49840;SDS011;35738;49.890;5.930;2024-03-08T01:27:27;34.93;;;17.43;;
49840;SDS011;35738;49.890;5.930;2024-03-08T01:29:54;33.60;;;17.00;;
49840;SDS011;35738;49.890;5.930;2024-03-08T01:32:20;35.07;;;17.03;;
49840;SDS011;35738;49.890;5.930;2024-03-08T01:34:49;32.50;;;16.20;;
49840;SDS011;35738;49.890;5.930;2024-03-08T01:37:15;31.83;;;16.10;;
49840;SDS011;35738;49.890;5.930;2024-03-08T01:39:42;33.87;;;17.70;;
49840;SDS011;35738;49.890;5.930;2024-03-08T01:42:08;33.73;;;17.60;;
49840;SDS011;35738;49.890;5.930;2024-03-08T01:44:38;34.57;;;16.50;;
49840;SDS011;35738;49.890;5.930;2024-03-08T01:47:05;32.80;;;16.53;;
49840;SDS011;35738;49.890;5.930;2024-03-08T01:49:32;33.57;;;17.30;;
49840;SDS011;35738;49.890;5.930;2024-03-08T01:51:59;32.50;;;16.23;;
49840;SDS011;35738;49.890;5.930;2024-03-08T01:54:26;33.93;;;17.10;;
49840;SDS011;35738;49.890;5.930;2024-03-08T01:56:53;32.03;;;16.83;;
49840;SDS011;35738;49.890;5.930;2024-03-08T01:59:20;34.13;;;16.60;;
49840;SDS011;35738;49.890;5.930;2024-03-08T02:01:46;31.53;;;16.23;;
49840;SDS011;35738;49.890;5.930;2024-03-08T02:04:14;31.40;;;16.23;;
49840;SDS011;35738;49.890;5.930;2024-03-08T02:06:40;33.43;;;16.13;;
49840;SDS011;35738;49.890;5.930;2024-03-08T02:09:07;32.23;;;16.97;;
49840;SDS011;35738;49.890;5.930;2024-03-08T02:11:34;32.60;;;17.30;;
49840;SDS011;35738;49.890;5.930;2024-03-08T02:14:02;32.70;;;16.63;;
49840;SDS011;35738;49.890;5.930;2024-03-08T02:16:29;34.47;;;17.87;;
49840;SDS011;35738;49.890;5.930;2024-03-08T02:18:55;35.00;;;17.10;;
49840;SDS011;35738;49.890;5.930;2024-03-08T02:21:22;35.47;;;17.03;;
49840;SDS011;35738;49.890;5.930;2024-03-08T02:23:49;33.77;;;18.03;;
49840;SDS011;35738;49.890;5.930;2024-03-08T02:26:18;36.20;;;18.60;;
49840;SDS011;35738;49.890;5.930;2024-03-08T02:28:45;33.23;;;17.40;;
49840;SDS011;35738;49.890;5.930;2024-03-08T02:31:12;34.27;;;18.10;;
49840;SDS011;35738;49.890;5.930;2024-03-08T02:33:38;34.73;;;18.03;;
49840;SDS011;35738;49.890;5.930;2024-03-08T02:36:05;35.17;;;17.50;;
49840;SDS011;35738;49.890;5.930;2024-03-08T02:38:32;36.50;;;17.70;;
49840;SDS011;35738;49.890;5.930;2024-03-08T02:40:59;38.67;;;18.70;;
49840;SDS011;35738;49.890;5.930;2024-03-08T02:43:26;35.40;;;18.10;;
49840;SDS011;35738;49.890;5.930;2024-03-08T02:45:52;32.73;;;17.83;;
49840;SDS011;35738;49.890;5.930;2024-03-08T02:48:19;33.90;;;18.07;;
49840;SDS011;35738;49.890;5.930;2024-03-08T02:50:48;37.97;;;18.97;;
49840;SDS011;35738;49.890;5.930;2024-03-08T02:53:15;36.03;;;17.60;;
49840;SDS011;35738;49.890;5.930;2024-03-08T02:55:41;36.43;;;18.17;;
49840;SDS011;35738;49.890;5.930;2024-03-08T02:58:08;39.33;;;19.00;;
49840;SDS011;35738;49.890;5.930;2024-03-08T03:00:37;36.17;;;19.17;;
49840;SDS011;35738;49.890;5.930;2024-03-08T03:03:05;39.30;;;19.07;;
49840;SDS011;35738;49.890;5.930;2024-03-08T03:05:33;38.23;;;18.83;;
49840;SDS011;35738;49.890;5.930;2024-03-08T03:08:02;38.90;;;20.33;;
49840;SDS011;35738;49.890;5.930;2024-03-08T03:10:36;39.23;;;19.67;;
49840;SDS011;35738;49.890;5.930;2024-03-08T03:13:02;40.87;;;19.53;;
49840;SDS011;35738;49.890;5.930;2024-03-08T03:15:30;41.23;;;20.40;;
49840;SDS011;35738;49.890;5.930;2024-03-08T03:17:57;39.10;;;19.73;;
49840;SDS011;35738;49.890;5.930;2024-03-08T03:20:24;39.07;;;19.67;;
49840;SDS011;35738;49.890;5.930;2024-03-08T03:22:53;38.57;;;19.63;;
49840;SDS011;35738;49.890;5.930;2024-03-08T03:25:20;39.93;;;19.97;;
49840;SDS011;35738;49.890;5.930;2024-03-08T03:27:52;39.33;;;20.33;;
49840;SDS011;35738;49.890;5.930;2024-03-08T03:30:23;42.37;;;20.73;;
49840;SDS011;35738;49.890;5.930;2024-03-08T03:32:53;40.17;;;20.97;;
49840;SDS011;35738;49.890;5.930;2024-03-08T03:35:21;39.23;;;20.53;;
49840;SDS011;35738;49.890;5.930;2024-03-08T03:37:48;38.83;;;20.33;;
49840;SDS011;35738;49.890;5.930;2024-03-08T03:40:28;40.17;;;20.20;;
49840;SDS011;35738;49.890;5.930;2024-03-08T03:42:55;45.20;;;21.87;;
49840;SDS011;35738;49.890;5.930;2024-03-08T03:45:25;41.37;;;21.53;;
49840;SDS011;35738;49.890;5.930;2024-03-08T03:47:52;40.73;;;21.60;;
49840;SDS011;35738;49.890;5.930;2024-03-08T03:50:19;43.17;;;21.00;;
49840;SDS011;35738;49.890;5.930;2024-03-08T03:52:46;42.60;;;21.23;;
49840;SDS011;35738;49.890;5.930;2024-03-08T03:55:14;40.27;;;20.70;;
49840;SDS011;35738;49.890;5.930;2024-03-08T03:57:41;41.47;;;20.97;;
49840;SDS011;35738;49.890;5.930;2024-03-08T04:00:07;39.53;;;20.83;;
49840;SDS011;35738;49.890;5.930;2024-03-08T04:02:37;43.13;;;21.50;;
49840;SDS011;35738;49.890;5.930;2024-03-08T04:05:08;43.63;;;21.87;;
49840;SDS011;35738;49.890;5.930;2024-03-08T04:07:35;42.27;;;20.87;;
49840;SDS011;35738;49.890;5.930;2024-03-08T04:10:03;46.87;;;21.77;;
49840;SDS011;35738;49.890;5.930;2024-03-08T04:12:35;41.43;;;21.77;;
49840;SDS011;35738;49.890;5.930;2024-03-08T04:15:02;40.40;;;20.53;;
49840;SDS011;35738;49.890;5.930;2024-03-08T04:17:29;44.53;;;21.77;;
49840;SDS011;35738;49.890;5.930;2024-03-08T04:19:56;40.07;;;21.80;;
49840;SDS011;35738;49.890;5.930;2024-03-08T04:22:23;45.40;;;22.83;;
49840;SDS011;35738;49.890;5.930;2024-03-08T04:24:50;41.90;;;22.00;;
49840;SDS011;35738;49.890;5.930;2024-03-08T04:27:17;44.50;;;21.47;;
49840;SDS011;35738;49.890;5.930;2024-03-08T04:29:43;44.77;;;22.07;;
49840;SDS011;35738;49.890;5.930;2024-03-08T04:32:10;40.63;;;21.83;;
49840;SDS011;35738;49.890;5.930;2024-03-08T04:34:37;45.03;;;22.73;;
49840;SDS011;35738;49.890;5.930;2024-03-08T04:37:03;42.33;;;22.63;;
49840;SDS011;35738;49.890;5.930;2024-03-08T04:39:31;43.80;;;23.17;;
49840;SDS011;35738;49.890;5.930;2024-03-08T04:41:58;44.30;;;22.60;;
49840;SDS011;35738;49.890;5.930;2024-03-08T04:44:32;43.60;;;23.03;;
49840;SDS011;35738;49.890;5.930;2024-03-08T04:47:00;43.87;;;22.87;;
49840;SDS011;35738;49.890;5.930;2024-03-08T04:49:27;46.40;;;23.40;;
49840;SDS011;35738;49.890;5.930;2024-03-08T04:51:54;42.93;;;21.13;;
49840;SDS011;35738;49.890;5.930;2024-03-08T04:54:21;44.97;;;21.80;;
49840;SDS011;35738;49.890;5.930;2024-03-08T04:56:48;45.23;;;23.07;;
49840;SDS011;35738;49.890;5.930;2024-03-08T04:59:15;47.87;;;23.03;;
49840;SDS011;35738;49.890;5.930;2024-03-08T05:01:41;45.00;;;23.27;;
49840;SDS011;35738;49.890;5.930;2024-03-08T05:04:09;45.20;;;23.40;;
49840;SDS011;35738;49.890;5.930;2024-03-08T05:06:36;46.70;;;24.07;;
49840;SDS011;35738;49.890;5.930;2024-03-08T05:09:03;46.13;;;23.00;;
49840;SDS011;35738;49.890;5.930;2024-03-08T05:11:40;45.43;;;23.20;;
49840;SDS011;35738;49.890;5.930;2024-03-08T05:14:14;47.57;;;21.37;;
49840;SDS011;35738;49.890;5.930;2024-03-08T05:16:47;49.23;;;24.10;;
49840;SDS011;35738;49.890;5.930;2024-03-08T05:19:16;45.67;;;22.77;;
49840;SDS011;35738;49.890;5.930;2024-03-08T05:21:47;44.77;;;23.27;;
49840;SDS011;35738;49.890;5.930;2024-03-08T05:24:15;47.60;;;24.40;;
49840;SDS011;35738;49.890;5.930;2024-03-08T05:26:43;45.90;;;23.63;;
49840;SDS011;35738;49.890;5.930;2024-03-08T05:29:10;44.87;;;21.90;;
49840;SDS011;35738;49.890;5.930;2024-03-08T05:31:46;42.93;;;22.10;;
49840;SDS011;35738;49.890;5.930;2024-03-08T05:34:13;48.03;;;23.10;;
49840;SDS011;35738;49.890;5.930;2024-03-08T05:36:41;47.73;;;22.80;;
49840;SDS011;35738;49.890;5.930;2024-03-08T05:39:12;44.33;;;24.00;;
49840;SDS011;35738;49.890;5.930;2024-03-08T05:41:40;42.27;;;22.20;;
49840;SDS011;35738;49.890;5.930;2024-03-08T05:44:07;46.10;;;23.43;;
49840;SDS011;35738;49.890;5.930;2024-03-08T05:46:35;46.00;;;23.57;;
49840;SDS011;35738;49.890;5.930;2024-03-08T05:49:08;44.17;;;23.03;;
49840;SDS011;35738;49.890;5.930;2024-03-08T05:51:37;49.40;;;24.57;;
49840;SDS011;35738;49.890;5.930;2024-03-08T05:54:06;47.23;;;24.27;;
49840;SDS011;35738;49.890;5.930;2024-03-08T05:56:35;44.80;;;23.37;;
49840;SDS011;35738;49.890;5.930;2024-03-08T05:59:03;46.77;;;23.57;;
49840;SDS011;35738;49.890;5.930;2024-03-08T06:01:30;45.07;;;22.40;;
49840;SDS011;35738;49.890;5.930;2024-03-08T06:03:57;47.37;;;24.03;;
49840;SDS011;35738;49.890;5.930;2024-03-08T06:06:24;46.73;;;24.40;;
49840;SDS011;35738;49.890;5.930;2024-03-08T06:08:51;48.80;;;24.50;;
49840;SDS011;35738;49.890;5.930;2024-03-08T06:11:18;45.73;;;23.37;;
49840;SDS011;35738;49.890;5.930;2024-03-08T06:13:49;49.63;;;23.30;;
49840;SDS011;35738;49.890;5.930;2024-03-08T06:16:16;50.00;;;24.23;;
49840;SDS011;35738;49.890;5.930;2024-03-08T06:18:42;48.77;;;23.90;;
49840;SDS011;35738;49.890;5.930;2024-03-08T06:21:09;48.87;;;24.33;;
49840;SDS011;35738;49.890;5.930;2024-03-08T06:23:38;47.90;;;23.77;;
49840;SDS011;35738;49.890;5.930;2024-03-08T06:26:06;46.77;;;23.00;;
49840;SDS011;35738;49.890;5.930;2024-03-08T06:28:33;44.43;;;22.37;;
49840;SDS011;35738;49.890;5.930;2024-03-08T06:31:01;45.97;;;24.17;;
49840;SDS011;35738;49.890;5.930;2024-03-08T06:33:28;44.37;;;23.13;;
49840;SDS011;35738;49.890;5.930;2024-03-08T06:35:57;47.13;;;23.83;;
49840;SDS011;35738;49.890;5.930;2024-03-08T06:38:24;44.40;;;23.53;;
49840;SDS011;35738;49.890;5.930;2024-03-08T06:40:51;43.07;;;23.00;;
49840;SDS011;35738;49.890;5.930;2024-03-08T06:43:18;48.23;;;23.93;;
49840;SDS011;35738;49.890;5.930;2024-03-08T06:45:45;47.97;;;23.13;;
49840;SDS011;35738;49.890;5.930;2024-03-08T06:48:17;46.10;;;22.30;;
49840;SDS011;35738;49.890;5.930;2024-03-08T06:50:44;45.30;;;23.97;;
49840;SDS011;35738;49.890;5.930;2024-03-08T06:53:12;42.57;;;21.67;;
49840;SDS011;35738;49.890;5.930;2024-03-08T06:55:39;46.67;;;22.60;;
49840;SDS011;35738;49.890;5.930;2024-03-08T06:58:06;46.70;;;22.90;;
49840;SDS011;35738;49.890;5.930;2024-03-08T07:00:33;42.67;;;22.60;;
49840;SDS011;35738;49.890;5.930;2024-03-08T07:03:00;43.80;;;22.40;;
49840;SDS011;35738;49.890;5.930;2024-03-08T07:05:29;43.60;;;22.83;;
49840;SDS011;35738;49.890;5.930;2024-03-08T07:07:57;37.57;;;20.77;;
49840;SDS011;35738;49.890;5.930;2024-03-08T07:10:24;43.60;;;22.37;;
49840;SDS011;35738;49.890;5.930;2024-03-08T07:12:51;42.43;;;21.20;;
49840;SDS011;35738;49.890;5.930;2024-03-08T07:15:22;38.60;;;20.33;;
49840;SDS011;35738;49.890;5.930;2024-03-08T07:17:49;40.07;;;22.03;;
49840;SDS011;35738;49.890;5.930;2024-03-08T07:20:19;42.67;;;21.77;;
49840;SDS011;35738;49.890;5.930;2024-03-08T07:22:46;42.20;;;21.33;;
49840;SDS011;35738;49.890;5.930;2024-03-08T07:25:14;35.60;;;20.73;;
49840;SDS011;35738;49.890;5.930;2024-03-08T07:27:51;36.97;;;20.10;;
49840;SDS011;35738;49.890;5.930;2024-03-08T07:30:19;39.60;;;20.40;;
49840;SDS011;35738;49.890;5.930;2024-03-08T07:33:06;37.87;;;20.67;;
49840;SDS011;35738;49.890;5.930;2024-03-08T07:35:33;35.83;;;19.50;;
49840;SDS011;35738;49.890;5.930;2024-03-08T07:38:06;36.23;;;20.10;;
49840;SDS011;35738;49.890;5.930;2024-03-08T07:40:37;36.07;;;19.30;;
49840;SDS011;35738;49.890;5.930;2024-03-08T07:43:07;33.80;;;19.83;;
49840;SDS011;35738;49.890;5.930;2024-03-08T07:45:34;39.47;;;20.77;;
49840;SDS011;35738;49.890;5.930;2024-03-08T07:48:02;32.60;;;17.83;;
49840;SDS011;35738;49.890;5.930;2024-03-08T07:50:29;38.70;;;19.83;;
49840;SDS011;35738;49.890;5.930;2024-03-08T07:52:56;36.37;;;19.33;;
49840;SDS011;35738;49.890;5.930;2024-03-08T07:55:22;36.13;;;19.30;;
49840;SDS011;35738;49.890;5.930;2024-03-08T07:57:50;33.47;;;18.17;;
49840;SDS011;35738;49.890;5.930;2024-03-08T08:00:17;34.30;;;18.70;;
49840;SDS011;35738;49.890;5.930;2024-03-08T08:02:44;35.70;;;19.20;;
49840;SDS011;35738;49.890;5.930;2024-03-08T08:05:16;30.63;;;18.20;;
49840;SDS011;35738;49.890;5.930;2024-03-08T08:07:44;32.23;;;18.53;;
49840;SDS011;35738;49.890;5.930;2024-03-08T08:10:15;33.00;;;18.03;;
49840;SDS011;35738;49.890;5.930;2024-03-08T08:12:50;33.53;;;17.30;;
49840;SDS011;35738;49.890;5.930;2024-03-08T08:15:20;36.23;;;19.00;;
49840;SDS011;35738;49.890;5.930;2024-03-08T08:17:46;31.07;;;18.60;;
49840;SDS011;35738;49.890;5.930;2024-03-08T08:20:16;32.40;;;18.00;;
49840;SDS011;35738;49.890;5.930;2024-03-08T08:22:45;32.13;;;17.70;;
49840;SDS011;35738;49.890;5.930;2024-03-08T08:25:12;35.00;;;18.93;;
49840;SDS011;35738;49.890;5.930;2024-03-08T08:27:39;29.60;;;17.23;;
49840;SDS011;35738;49.890;5.930;2024-03-08T08:30:06;30.40;;;17.97;;
49840;SDS011;35738;49.890;5.930;2024-03-08T08:32:35;30.67;;;17.13;;
49840;SDS011;35738;49.890;5.930;2024-03-08T08:35:13;30.07;;;16.73;;
49840;SDS011;35738;49.890;5.930;2024-03-08T08:37:40;27.07;;;16.23;;
49840;SDS011;35738;49.890;5.930;2024-03-08T08:40:07;28.73;;;16.70;;
49840;SDS011;35738;49.890;5.930;2024-03-08T08:42:42;27.03;;;16.67;;
49840;SDS011;35738;49.890;5.930;2024-03-08T08:45:09;32.47;;;18.30;;
49840;SDS011;35738;49.890;5.930;2024-03-08T08:47:43;26.03;;;16.27;;
49840;SDS011;35738;49.890;5.930;2024-03-08T08:50:12;30.87;;;17.27;;
49840;SDS011;35738;49.890;5.930;2024-03-08T08:52:39;27.10;;;16.30;;
49840;SDS011;35738;49.890;5.930;2024-03-08T08:55:07;27.93;;;16.73;;
49840;SDS011;35738;49.890;5.930;2024-03-08T08:57:34;27.33;;;16.25;;
49840;SDS011;35738;49.890;5.930;2024-03-08T09:00:02;28.73;;;16.53;;
49840;SDS011;35738;49.890;5.930;2024-03-08T09:02:41;28.90;;;16.37;;
49840;SDS011;35738;49.890;5.930;2024-03-08T09:05:08;26.33;;;15.43;;
49840;SDS011;35738;49.890;5.930;2024-03-08T09:07:35;28.27;;;16.35;;
49840;SDS011;35738;49.890;5.930;2024-03-08T09:10:01;29.83;;;16.33;;
49840;SDS011;35738;49.890;5.930;2024-03-08T09:12:43;27.60;;;16.67;;
49840;SDS011;35738;49.890;5.930;2024-03-08T09:15:09;27.38;;;15.85;;
49840;SDS011;35738;49.890;5.930;2024-03-08T09:17:39;26.52;;;16.27;;
49840;SDS011;35738;49.890;5.930;2024-03-08T09:20:07;29.43;;;16.87;;
49840;SDS011;35738;49.890;5.930;2024-03-08T09:22:35;25.73;;;16.45;;
49840;SDS011;35738;49.890;5.930;2024-03-08T09:25:01;29.63;;;16.02;;
49840;SDS011;35738;49.890;5.930;2024-03-08T09:27:31;27.27;;;16.07;;
49840;SDS011;35738;49.890;5.930;2024-03-08T09:29:57;31.30;;;16.95;;
49840;SDS011;35738;49.890;5.930;2024-03-08T09:32:24;26.87;;;16.47;;
49840;SDS011;35738;49.890;5.930;2024-03-08T09:34:51;27.60;;;15.73;;
49840;SDS011;35738;49.890;5.930;2024-03-08T09:37:17;28.30;;;16.17;;
49840;SDS011;35738;49.890;5.930;2024-03-08T09:39:45;29.47;;;15.97;;
49840;SDS011;35738;49.890;5.930;2024-03-08T09:42:11;24.63;;;15.98;;
49840;SDS011;35738;49.890;5.930;2024-03-08T09:44:47;27.70;;;16.30;;
49840;SDS011;35738;49.890;5.930;2024-03-08T09:47:14;26.45;;;15.90;;
49840;SDS011;35738;49.890;5.930;2024-03-08T09:49:41;25.13;;;15.73;;
49840;SDS011;35738;49.890;5.930;2024-03-08T09:52:09;26.90;;;15.80;;
49840;SDS011;35738;49.890;5.930;2024-03-08T09:54:36;28.08;;;16.40;;
49840;SDS011;35738;49.890;5.930;2024-03-08T09:57:06;27.85;;;16.20;;
49840;SDS011;35738;49.890;5.930;2024-03-08T09:59:35;28.05;;;14.70;;
49840;SDS011;35738;49.890;5.930;2024-03-08T10:02:04;26.63;;;15.95;;
49840;SDS011;35738;49.890;5.930;2024-03-08T10:04:32;25.20;;;15.20;;
49840;SDS011;35738;49.890;5.930;2024-03-08T10:07:00;24.33;;;14.48;;
49840;SDS011;35738;49.890;5.930;2024-03-08T10:09:27;26.65;;;15.32;;
49840;SDS011;35738;49.890;5.930;2024-03-08T10:11:57;24.25;;;14.73;;
49840;SDS011;35738;49.890;5.930;2024-03-08T10:14:24;23.55;;;14.55;;
49840;SDS011;35738;49.890;5.930;2024-03-08T10:16:52;23.20;;;14.93;;
49840;SDS011;35738;49.890;5.930;2024-03-08T10:19:20;23.98;;;14.95;;
49840;SDS011;35738;49.890;5.930;2024-03-08T10:21:48;25.15;;;15.07;;
49840;SDS011;35738;49.890;5.930;2024-03-08T10:24:15;23.55;;;13.88;;
49840;SDS011;35738;49.890;5.930;2024-03-08T10:26:43;22.67;;;14.73;;
49840;SDS011;35738;49.890;5.930;2024-03-08T10:29:10;25.30;;;15.02;;
49840;SDS011;35738;49.890;5.930;2024-03-08T10:31:44;26.48;;;15.30;;
49840;SDS011;35738;49.890;5.930;2024-03-08T10:34:11;27.25;;;15.70;;
49840;SDS011;35738;49.890;5.930;2024-03-08T10:36:39;23.45;;;14.73;;
49840;SDS011;35738;49.890;5.930;2024-03-08T10:39:10;25.83;;;15.07;;
49840;SDS011;35738;49.890;5.930;2024-03-08T10:41:49;24.88;;;15.30;;
49840;SDS011;35738;49.890;5.930;2024-03-08T10:47:00;25.88;;;14.52;;
49840;SDS011;35738;49.890;5.930;2024-03-08T10:49:32;25.13;;;14.48;;
49840;SDS011;35738;49.890;5.930;2024-03-08T10:52:05;24.30;;;14.80;;
49840;SDS011;35738;49.890;5.930;2024-03-08T10:54:36;25.77;;;15.43;;
49840;SDS011;35738;49.890;5.930;2024-03-08T10:57:11;24.48;;;15.10;;
49840;SDS011;35738;49.890;5.930;2024-03-08T10:59:38;23.08;;;15.23;;
49840;SDS011;35738;49.890;5.930;2024-03-08T11:02:06;22.75;;;14.65;;
49840;SDS011;35738;49.890;5.930;2024-03-08T11:04:33;22.02;;;14.05;;
49840;SDS011;35738;49.890;5.930;2024-03-08T11:07:00;22.00;;;14.27;;
49840;SDS011;35738;49.890;5.930;2024-03-08T11:09:34;22.13;;;14.55;;
49840;SDS011;35738;49.890;5.930;2024-03-08T11:14:49;26.05;;;14.50;;
49840;SDS011;35738;49.890;5.930;2024-03-08T11:18:02;22.60;;;14.60;;
49840;SDS011;35738;49.890;5.930;2024-03-08T11:20:12;24.67;;;14.85;;
49840;SDS011;35738;49.890;5.930;2024-03-08T11:22:48;23.50;;;14.27;;
49840;SDS011;35738;49.890;5.930;2024-03-08T11:28:19;24.95;;;14.20;;
49840;SDS011;35738;49.890;5.930;2024-03-08T11:33:29;21.30;;;13.90;;
49840;SDS011;35738;49.890;5.930;2024-03-08T11:38:48;24.40;;;15.23;;
49840;SDS011;35738;49.890;5.930;2024-03-08T11:41:19;23.83;;;14.27;;
49840;SDS011;35738;49.890;5.930;2024-03-08T11:43:47;21.25;;;14.38;;
49840;SDS011;35738;49.890;5.930;2024-03-08T11:46:15;23.27;;;14.43;;
49840;SDS011;35738;49.890;5.930;2024-03-08T11:48:43;23.00;;;14.57;;
49840;SDS011;35738;49.890;5.930;2024-03-08T11:51:13;21.90;;;13.75;;
49840;SDS011;35738;49.890;5.930;2024-03-08T11:53:41;23.08;;;14.00;;
49840;SDS011;35738;49.890;5.930;2024-03-08T11:56:13;21.90;;;14.57;;
49840;SDS011;35738;49.890;5.930;2024-03-08T11:58:40;21.98;;;13.48;;
49840;SDS011;35738;49.890;5.930;2024-03-08T12:01:08;22.65;;;13.40;;
49840;SDS011;35738;49.890;5.930;2024-03-08T12:03:41;22.73;;;14.25;;
49840;SDS011;35738;49.890;5.930;2024-03-08T12:06:09;20.80;;;14.07;;
49840;SDS011;35738;49.890;5.930;2024-03-08T12:08:36;23.48;;;14.52;;
49840;SDS011;35738;49.890;5.930;2024-03-08T12:11:03;22.20;;;14.15;;
49840;SDS011;35738;49.890;5.930;2024-03-08T12:13:31;22.98;;;14.32;;
49840;SDS011;35738;49.890;5.930;2024-03-08T12:16:01;21.98;;;14.10;;
49840;SDS011;35738;49.890;5.930;2024-03-08T12:18:33;23.35;;;14.50;;
49840;SDS011;35738;49.890;5.930;2024-03-08T12:21:05;22.52;;;13.90;;
49840;SDS011;35738;49.890;5.930;2024-03-08T12:23:37;24.35;;;14.45;;
49840;SDS011;35738;49.890;5.930;2024-03-08T12:28:44;23.25;;;13.77;;
49840;SDS011;35738;49.890;5.930;2024-03-08T12:31:14;22.13;;;13.30;;
49840;SDS011;35738;49.890;5.930;2024-03-08T12:36:25;21.73;;;13.43;;
49840;SDS011;35738;49.890;5.930;2024-03-08T12:38:53;20.45;;;14.15;;
49840;SDS011;35738;49.890;5.930;2024-03-08T12:41:23;20.52;;;14.02;;
49840;SDS011;35738;49.890;5.930;2024-03-08T12:43:50;23.30;;;14.18;;
49840;SDS011;35738;49.890;5.930;2024-03-08T12:46:17;22.85;;;14.40;;
49840;SDS011;35738;49.890;5.930;2024-03-08T12:48:47;20.80;;;14.07;;
49840;SDS011;35738;49.890;5.930;2024-03-08T12:51:14;21.35;;;13.70;;
49840;SDS011;35738;49.890;5.930;2024-03-08T12:53:42;23.60;;;14.18;;
49840;SDS011;35738;49.890;5.930;2024-03-08T12:56:12;22.60;;;14.77;;
49840;SDS011;35738;49.890;5.930;2024-03-08T12:58:42;20.38;;;14.02;;
49840;SDS011;35738;49.890;5.930;2024-03-08T13:01:09;21.45;;;14.52;;
49840;SDS011;35738;49.890;5.930;2024-03-08T13:03:36;21.63;;;14.85;;
49840;SDS011;35738;49.890;5.930;2024-03-08T13:06:03;23.92;;;14.32;;
49840;SDS011;35738;49.890;5.930;2024-03-08T13:08:37;23.42;;;15.25;;
49840;SDS011;35738;49.890;5.930;2024-03-08T13:11:07;22.73;;;14.68;;
49840;SDS011;35738;49.890;5.930;2024-03-08T13:13:37;19.92;;;14.32;;
49840;SDS011;35738;49.890;5.930;2024-03-08T13:16:06;24.02;;;15.38;;
49840;SDS011;35738;49.890;5.930;2024-03-08T13:18:35;21.58;;;14.95;;
49840;SDS011;35738;49.890;5.930;2024-03-08T13:21:02;20.77;;;14.60;;
49840;SDS011;35738;49.890;5.930;2024-03-08T13:23:33;22.13;;;14.23;;
49840;SDS011;35738;49.890;5.930;2024-03-08T13:26:06;20.60;;;14.50;;
49840;SDS011;35738;49.890;5.930;2024-03-08T13:28:33;22.92;;;14.90;;
49840;SDS011;35738;49.890;5.930;2024-03-08T13:31:04;21.92;;;13.85;;
49840;SDS011;35738;49.890;5.930;2024-03-08T13:33:33;25.52;;;14.40;;
49840;SDS011;35738;49.890;5.930;2024-03-08T13:36:03;23.88;;;15.23;;
49840;SDS011;35738;49.890;5.930;2024-03-08T13:38:34;21.73;;;14.25;;
49840;SDS011;35738;49.890;5.930;2024-03-08T13:41:03;23.13;;;14.88;;
49840;SDS011;35738;49.890;5.930;2024-03-08T13:43:29;22.45;;;14.52;;
49840;SDS011;35738;49.890;5.930;2024-03-08T13:46:00;22.45;;;14.43;;
49840;SDS011;35738;49.890;5.930;2024-03-08T13:48:27;22.17;;;14.43;;
49840;SDS011;35738;49.890;5.930;2024-03-08T13:50:53;22.42;;;14.05;;
49840;SDS011;35738;49.890;5.930;2024-03-08T13:53:21;22.13;;;13.27;;
49840;SDS011;35738;49.890;5.930;2024-03-08T13:55:49;21.67;;;14.07;;
49840;SDS011;35738;49.890;5.930;2024-03-08T13:58:16;21.85;;;14.27;;
49840;SDS011;35738;49.890;5.930;2024-03-08T14:00:43;20.95;;;13.98;;
49840;SDS011;35738;49.890;5.930;2024-03-08T14:03:12;24.83;;;15.05;;
49840;SDS011;35738;49.890;5.930;2024-03-08T14:05:40;23.75;;;15.07;;
49840;SDS011;35738;49.890;5.930;2024-03-08T14:08:11;20.42;;;14.15;;
49840;SDS011;35738;49.890;5.930;2024-03-08T14:10:38;21.85;;;14.57;;
49840;SDS011;35738;49.890;5.930;2024-03-08T14:13:05;23.98;;;14.77;;
49840;SDS011;35738;49.890;5.930;2024-03-08T14:15:33;22.05;;;14.43;;
49840;SDS011;35738;49.890;5.930;2024-03-08T14:18:01;21.90;;;15.48;;
49840;SDS011;35738;49.890;5.930;2024-03-08T14:20:27;21.15;;;14.90;;
49840;SDS011;35738;49.890;5.930;2024-03-08T14:22:54;23.00;;;15.00;;
49840;SDS011;35738;49.890;5.930;2024-03-08T14:25:22;24.63;;;15.75;;
49840;SDS011;35738;49.890;5.930;2024-03-08T14:27:50;21.95;;;14.43;;
49840;SDS011;35738;49.890;5.930;2024-03-08T14:30:20;22.88;;;14.93;;
49840;SDS011;35738;49.890;5.930;2024-03-08T14:32:58;22.98;;;14.80;;
49840;SDS011;35738;49.890;5.930;2024-03-08T14:35:30;21.83;;;14.98;;
49840;SDS011;35738;49.890;5.930;2024-03-08T14:37:58;23.75;;;15.73;;
49840;SDS011;35738;49.890;5.930;2024-03-08T14:40:25;26.73;;;15.48;;
49840;SDS011;35738;49.890;5.930;2024-03-08T14:42:52;24.83;;;15.63;;
49840;SDS011;35738;49.890;5.930;2024-03-08T14:45:19;22.52;;;14.95;;
49840;SDS011;35738;49.890;5.930;2024-03-08T14:47:46;24.92;;;15.50;;